メインページ
METAR-TAF:

METAR-TAF

空港 :

Nowshahr, イラン

緯度: 36-39-48N, 経度: 051-27-53E, 海抜: 0m

現時点の気象観測

当レポートは1時間11分前の10:00(UTC)に作成
北/北東の風 4kt
気温 12°C
湿度 76%
気圧 1020 hPa
視程: 6000m
高度1500ftの曇り

METAR: OINN 221000Z 03004KT 6000 OVC015 12/08 Q1020

時間: 14:41 (11:11 UTC)


TAF: 見つかりません

4,000以上の空港の気象観測と天気予報(METAR報とTAF報)

利用可能な観測所は地図上に黄色い丸と赤い丸で示す。

丸の上にカーソルを重ねると観測所名を参照できる。

次にクリックすると気象観測と天気予報を参照できる。

マップの切り替え:黒色「×」印の緑ボタンをクリックして拡大、「-」印の緑ボタンをクリックして縮小、緑色の三角印をクリックして隣りの地図に切り替え


METAR-TAF: